TAF TNCC
METAR TNCC
TNCC 271100Z 13005KT 9999 VCSH SCT018 26/24 Q1012 NOSIG=
TNCC 271000Z 13005KT 9999 FEW017 25/24 Q1011 NOSIG=
TNCC 270900Z 12004KT 9999 FEW018 25/24 Q1011 NOSIG=
TNCC 270800Z 12004KT 9999 FEW018 25/24 Q1011 NOSIG=
TNCC 270700Z 12005KT 9999 FEW017 25/24 Q1011 NOSIG=
WC TNCC
WS TNCC
WV TNCC